Time;durP1;ratioP1;P1;durP2;ratioP2;P2;SDS_P1;SDS_P2;PMS_P1;PMS_P2;Temp;Humidity;BMP_temperature;BMP_pressure;BME280_temperature;BME280_humidity;BME280_pressure;Samples;Min_cycle;Max_cycle;Signal;HPM_P1;HPM_P2
2020/12/28 00:00:16;;;;;;;2.50;1.30;;;3.90;99.90;;;;;;5013367;28;20045;-67
2020/12/28 00:02:45;;;;;;;2.28;1.48;;;4.00;99.90;;;;;;5013580;28;20483;-67
2020/12/28 00:05:13;;;;;;;2.22;1.70;;;4.10;99.90;;;;;;5013521;28;20132;-67
2020/12/28 00:07:43;;;;;;;2.50;1.45;;;4.20;99.90;;;;;;5013343;28;20057;-67
2020/12/28 00:10:11;;;;;;;2.58;1.60;;;4.00;99.90;;;;;;5028724;28;20144;-68
2020/12/28 00:12:47;;;;;;;2.22;1.73;;;4.10;99.90;;;;;;5032953;28;20143;-67
2020/12/28 00:15:18;;;;;;;1.80;1.42;;;4.00;99.90;;;;;;5033286;28;20493;-67
2020/12/28 00:17:45;;;;;;;2.90;1.50;;;4.00;99.90;;;;;;5033098;28;20085;-68
2020/12/28 00:20:12;;;;;;;2.00;1.40;;;4.00;99.90;;;;;;5033217;28;20053;-67
2020/12/28 00:22:39;;;;;;;2.35;1.50;;;3.80;99.90;;;;;;5033082;28;20096;-68
2020/12/28 00:25:06;;;;;;;1.35;0.85;;;4.10;99.90;;;;;;5032202;28;20076;-68
2020/12/28 00:27:33;;;;;;;2.20;1.35;;;4.00;99.90;;;;;;5033094;28;20140;-68
2020/12/28 00:30:00;;;;;;;2.67;1.60;;;4.00;99.90;;;;;;5033121;28;20050;-67
2020/12/28 00:32:26;;;;;;;3.00;1.70;;;4.10;99.90;;;;;;5032688;28;20108;-68
2020/12/28 00:34:53;;;;;;;2.25;1.50;;;4.10;99.90;;;;;;5032868;28;20437;-68
2020/12/28 00:37:20;;;;;;;2.55;1.50;;;4.20;99.90;;;;;;5032749;28;20073;-68
2020/12/28 00:39:47;;;;;;;2.30;1.30;;;4.00;99.90;;;;;;5033129;28;20099;-68
2020/12/28 00:42:14;;;;;;;2.03;1.40;;;4.10;99.90;;;;;;5033037;28;20077;-67
2020/12/28 00:44:40;;;;;;;1.85;1.13;;;4.20;99.90;;;;;;5032929;28;20487;-68
2020/12/28 00:47:09;;;;;;;2.08;1.33;;;4.20;99.90;;;;;;5034452;28;20057;-68
2020/12/28 00:49:36;;;;;;;2.10;1.50;;;4.00;99.90;;;;;;5036615;28;20057;-68
2020/12/28 00:52:03;;;;;;;1.83;1.40;;;4.20;99.90;;;;;;5036826;28;20108;-68
2020/12/28 00:54:29;;;;;;;2.30;1.60;;;4.20;99.90;;;;;;5036610;28;20134;-68
2020/12/28 00:56:57;;;;;;;2.25;1.60;;;4.20;99.90;;;;;;5036483;28;20092;-68
2020/12/28 00:59:26;;;;;;;2.08;1.42;;;4.10;99.90;;;;;;5036429;28;20057;-68
2020/12/28 01:01:56;;;;;;;2.72;1.50;;;4.30;99.90;;;;;;5036382;28;20049;-67
2020/12/28 01:04:22;;;;;;;2.00;1.25;;;4.30;99.90;;;;;;5036068;28;20049;-67
2020/12/28 01:06:49;;;;;;;2.03;1.42;;;4.20;99.90;;;;;;5036032;28;20057;-67
2020/12/28 01:09:17;;;;;;;2.08;1.30;;;4.30;99.90;;;;;;5036259;28;20080;-68
2020/12/28 01:11:44;;;;;;;2.10;1.42;;;4.20;99.90;;;;;;5036459;28;20077;-67
2020/12/28 01:14:12;;;;;;;2.70;1.30;;;4.30;99.90;;;;;;5036064;28;20092;-67
2020/12/28 01:16:44;;;;;;;1.95;1.15;;;4.30;99.90;;;;;;5036200;28;20088;-67
2020/12/28 01:19:10;;;;;;;2.55;1.15;;;4.20;99.90;;;;;;5026255;28;20484;-67
2020/12/28 01:21:37;;;;;;;1.90;1.20;;;4.40;99.90;;;;;;5016185;28;20053;-68
2020/12/28 01:24:06;;;;;;;1.98;1.20;;;4.30;99.90;;;;;;5017590;28;20045;-68
2020/12/28 01:26:33;;;;;;;1.75;1.02;;;4.20;99.90;;;;;;5016250;28;20060;-67
2020/12/28 01:28:59;;;;;;;1.35;0.90;;;4.20;99.90;;;;;;5016404;28;20065;-67
2020/12/28 01:31:27;;;;;;;1.63;1.00;;;4.20;99.90;;;;;;5016174;28;20097;-67
2020/12/28 01:33:53;;;;;;;1.50;1.00;;;4.30;99.90;;;;;;5016852;28;20053;-67
2020/12/28 01:36:20;;;;;;;2.63;1.15;;;4.20;99.90;;;;;;5016078;28;20136;-68
2020/12/28 01:38:46;;;;;;;1.60;1.02;;;4.30;99.90;;;;;;5016217;28;20538;-67
2020/12/28 01:41:17;;;;;;;1.48;0.90;;;4.30;99.90;;;;;;5015854;28;20415;-67
2020/12/28 01:43:43;;;;;;;1.30;0.90;;;4.30;99.90;;;;;;5016095;28;20050;-67
2020/12/28 01:46:11;;;;;;;1.50;0.93;;;4.20;99.90;;;;;;5015945;28;20054;-67
2020/12/28 01:48:39;;;;;;;1.55;0.98;;;4.30;99.90;;;;;;5018147;28;20161;-67
2020/12/28 01:51:05;;;;;;;1.80;1.08;;;4.30;99.90;;;;;;5016047;28;20483;-66
2020/12/28 01:53:34;;;;;;;1.63;1.00;;;4.20;99.90;;;;;;5015971;28;20479;-66
2020/12/28 01:56:03;;;;;;;1.92;1.00;;;4.30;99.90;;;;;;5028192;28;20139;-66
2020/12/28 01:58:30;;;;;;;1.92;1.13;;;4.20;99.90;;;;;;5035050;28;20049;-66
2020/12/28 02:00:57;;;;;;;1.90;1.02;;;4.20;99.90;;;;;;5037059;28;20461;-65
2020/12/28 02:03:25;;;;;;;2.55;0.93;;;4.20;99.90;;;;;;5036029;28;20049;-66
2020/12/28 02:05:52;;;;;;;2.03;1.25;;;4.50;99.90;;;;;;5035072;28;20478;-65
2020/12/28 02:08:22;;;;;;;1.50;0.90;;;4.40;99.90;;;;;;5036017;28;20497;-65
2020/12/28 02:10:53;;;;;;;1.90;1.00;;;4.40;99.90;;;;;;5036099;28;20061;-65
2020/12/28 02:13:20;;;;;;;1.65;0.90;;;4.40;99.90;;;;;;5036093;28;20050;-65
2020/12/28 02:15:48;;;;;;;1.35;0.70;;;4.40;99.90;;;;;;5035888;28;20053;-65
2020/12/28 02:18:16;;;;;;;1.73;0.98;;;4.50;99.90;;;;;;5035442;28;20068;-65
2020/12/28 02:20:43;;;;;;;2.17;1.15;;;4.60;99.90;;;;;;5035351;28;20139;-65
2020/12/28 02:23:10;;;;;;;1.60;1.00;;;4.60;99.90;;;;;;5036035;28;20060;-65
2020/12/28 02:25:37;;;;;;;1.80;1.05;;;4.60;99.90;;;;;;5035538;28;20045;-65
2020/12/28 02:28:03;;;;;;;2.33;1.65;;;4.60;99.90;;;;;;5035704;28;20130;-65
2020/12/28 02:30:30;;;;;;;1.77;1.20;;;4.60;99.90;;;;;;5035504;28;20231;-65
2020/12/28 02:32:56;;;;;;;1.50;1.00;;;4.70;99.90;;;;;;5035760;28;20049;-65
2020/12/28 02:35:23;;;;;;;1.70;1.05;;;4.70;99.90;;;;;;5035073;28;20089;-65
2020/12/28 02:37:49;;;;;;;1.35;0.85;;;4.70;99.90;;;;;;5034959;28;20084;-65
2020/12/28 02:40:17;;;;;;;1.98;0.98;;;4.70;99.90;;;;;;5034156;28;20510;-64
2020/12/28 02:42:46;;;;;;;2.17;0.98;;;4.70;99.90;;;;;;5034862;28;20083;-65
2020/12/28 02:45:16;;;;;;;2.33;1.20;;;4.60;99.90;;;;;;5034855;28;20076;-64
2020/12/28 02:47:42;;;;;;;1.52;1.00;;;4.70;99.90;;;;;;5034549;28;20526;-64
2020/12/28 02:50:12;;;;;;;1.65;1.17;;;4.80;99.90;;;;;;5034559;28;20091;-65
2020/12/28 02:52:38;;;;;;;1.63;1.05;;;4.80;99.90;;;;;;5034526;28;20402;-65
2020/12/28 02:55:07;;;;;;;1.55;0.80;;;4.70;99.90;;;;;;5033698;28;20095;-65
2020/12/28 02:57:38;;;;;;;1.65;1.00;;;4.60;99.90;;;;;;5034251;28;20132;-65
2020/12/28 03:00:06;;;;;;;1.10;0.77;;;4.70;99.90;;;;;;5035037;28;20592;-65
2020/12/28 03:02:32;;;;;;;1.60;1.00;;;4.70;99.90;;;;;;5034618;28;20096;-65
2020/12/28 03:04:59;;;;;;;1.77;1.00;;;4.70;99.90;;;;;;5035078;28;20053;-65
2020/12/28 03:07:25;;;;;;;1.83;1.10;;;4.70;99.90;;;;;;5035185;28;20068;-65
2020/12/28 03:09:53;;;;;;;2.33;1.15;;;4.70;99.90;;;;;;5035050;28;20050;-65
2020/12/28 03:12:20;;;;;;;2.45;1.08;;;4.70;99.90;;;;;;5023966;28;20204;-65
2020/12/28 03:14:47;;;;;;;2.92;1.10;;;4.70;99.90;;;;;;5015433;28;20054;-65
2020/12/28 03:17:15;;;;;;;1.83;1.10;;;4.70;99.90;;;;;;5015267;28;20061;-65
2020/12/28 03:19:42;;;;;;;1.88;1.10;;;4.60;99.90;;;;;;5014946;28;20085;-65
2020/12/28 03:22:11;;;;;;;1.45;1.02;;;4.70;99.90;;;;;;5014864;28;20126;-65
2020/12/28 03:24:38;;;;;;;2.17;1.00;;;4.70;99.90;;;;;;5015764;28;20109;-65
2020/12/28 03:27:04;;;;;;;2.25;1.00;;;4.80;99.90;;;;;;5014679;28;20056;-65
2020/12/28 03:29:31;;;;;;;2.10;1.25;;;4.80;99.90;;;;;;5014471;28;20061;-66
2020/12/28 03:31:59;;;;;;;2.78;1.30;;;4.70;99.90;;;;;;5013982;28;20046;-65
2020/12/28 03:34:26;;;;;;;2.22;1.00;;;4.80;99.90;;;;;;5013943;28;20116;-65
2020/12/28 03:36:54;;;;;;;1.90;1.10;;;4.60;99.90;;;;;;5014342;28;20100;-66
2020/12/28 03:39:21;;;;;;;1.45;1.02;;;4.60;99.90;;;;;;5014890;28;20172;-66
2020/12/28 03:41:47;;;;;;;1.75;1.20;;;4.70;99.90;;;;;;5014460;28;20049;-66
2020/12/28 03:44:17;;;;;;;1.50;1.10;;;4.70;99.90;;;;;;5013806;28;20045;-66
2020/12/28 03:46:45;;;;;;;2.20;1.08;;;4.70;99.90;;;;;;5013629;28;20104;-66
2020/12/28 03:49:13;;;;;;;2.78;1.35;;;4.70;99.90;;;;;;5014429;28;20429;-66
2020/12/28 03:51:39;;;;;;;1.90;1.10;;;4.60;99.90;;;;;;5013339;28;20083;-66
2020/12/28 03:54:08;;;;;;;2.70;1.10;;;4.60;99.90;;;;;;5013629;28;20050;-66
2020/12/28 03:56:35;;;;;;;1.55;1.10;;;4.60;99.90;;;;;;5013662;28;20049;-66
2020/12/28 03:59:04;;;;;;;1.70;1.15;;;4.60;99.90;;;;;;5013766;28;20050;-66
2020/12/28 04:01:31;;;;;;;1.65;1.10;;;4.70;99.90;;;;;;5013434;28;20050;-66
2020/12/28 04:04:00;;;;;;;1.80;1.30;;;4.70;99.90;;;;;;5013759;28;20429;-66
2020/12/28 04:06:28;;;;;;;2.10;1.42;;;4.70;99.90;;;;;;5015252;28;20057;-66
2020/12/28 04:08:54;;;;;;;1.60;1.10;;;4.70;99.90;;;;;;5018144;28;20076;-66
2020/12/28 04:11:21;;;;;;;2.35;1.40;;;4.60;99.90;;;;;;5033266;28;20057;-66
2020/12/28 04:13:47;;;;;;;1.65;1.10;;;4.50;99.90;;;;;;5033141;28;20053;-66
2020/12/28 04:16:15;;;;;;;1.75;1.10;;;4.60;99.90;;;;;;5033107;28;20080;-66
2020/12/28 04:18:41;;;;;;;1.85;1.27;;;4.50;99.90;;;;;;5032786;28;20053;-66
2020/12/28 04:21:08;;;;;;;1.70;1.10;;;4.50;99.90;;;;;;5031783;28;20046;-66
2020/12/28 04:23:36;;;;;;;1.95;1.15;;;4.50;99.90;;;;;;5032709;28;20081;-67
2020/12/28 04:26:03;;;;;;;1.90;1.15;;;4.60;99.90;;;;;;5033085;28;20512;-67
2020/12/28 04:28:30;;;;;;;1.70;1.00;;;4.60;99.90;;;;;;5033056;28;20473;-67
2020/12/28 04:30:56;;;;;;;1.40;0.80;;;4.60;99.90;;;;;;5032972;28;20546;-67
2020/12/28 04:33:25;;;;;;;2.08;0.88;;;4.60;99.90;;;;;;5032654;28;20227;-66
2020/12/28 04:35:52;;;;;;;1.50;0.90;;;4.70;99.90;;;;;;5032824;28;20140;-66
2020/12/28 04:38:19;;;;;;;2.15;0.88;;;4.80;99.90;;;;;;5032608;28;20077;-67
2020/12/28 04:40:46;;;;;;;1.58;0.95;;;4.90;99.90;;;;;;5033051;28;20057;-67
2020/12/28 04:43:14;;;;;;;1.83;0.70;;;4.80;99.90;;;;;;5032830;28;20100;-67
2020/12/28 04:45:40;;;;;;;1.80;1.00;;;4.70;99.90;;;;;;5032319;28;20089;-67
2020/12/28 04:48:08;;;;;;;2.55;1.00;;;4.70;99.90;;;;;;5032882;28;20529;-67
2020/12/28 04:50:35;;;;;;;2.28;1.05;;;4.70;99.90;;;;;;5032720;28;20053;-67
2020/12/28 04:53:04;;;;;;;3.47;1.10;;;4.60;99.90;;;;;;5032477;28;20041;-66
2020/12/28 04:55:31;;;;;;;1.60;1.20;;;4.60;99.90;;;;;;5032868;28;20057;-66
2020/12/28 04:57:58;;;;;;;2.17;1.17;;;4.60;99.90;;;;;;5032441;28;20088;-66
2020/12/28 05:00:25;;;;;;;3.55;1.45;;;4.60;99.90;;;;;;5032495;28;20088;-66
2020/12/28 05:02:52;;;;;;;2.78;1.38;;;4.60;99.90;;;;;;5032666;28;20088;-66
2020/12/28 05:05:18;;;;;;;1.63;1.10;;;4.50;99.90;;;;;;5032457;28;20050;-66
2020/12/28 05:07:49;;;;;;;2.40;1.60;;;4.30;99.90;;;;;;5031880;28;20088;-66
2020/12/28 05:10:23;;;;;;;3.13;1.50;;;4.40;99.90;;;;;;5032500;28;20184;-66
2020/12/28 05:12:50;;;;;;;2.25;1.40;;;4.40;99.90;;;;;;5032334;28;20045;-66
2020/12/28 05:15:18;;;;;;;2.50;1.50;;;4.50;99.90;;;;;;5022480;28;20046;-66
2020/12/28 05:17:53;;;;;;;2.45;1.40;;;4.60;99.90;;;;;;5012715;28;20046;-66
2020/12/28 05:20:23;;;;;;;1.70;1.30;;;4.60;99.90;;;;;;5013016;28;20137;-66
2020/12/28 05:22:51;;;;;;;3.28;1.80;;;4.70;99.90;;;;;;5012828;28;20053;-66
2020/12/28 05:25:17;;;;;;;2.40;1.75;;;4.70;99.90;;;;;;5013354;28;20439;-66
2020/12/28 05:27:47;;;;;;;2.65;1.95;;;4.70;99.90;;;;;;5012860;28;20056;-66
2020/12/28 05:30:13;;;;;;;2.95;2.00;;;4.60;99.90;;;;;;5013137;28;20495;-66
2020/12/28 05:32:44;;;;;;;3.17;2.10;;;4.70;99.90;;;;;;5013929;28;20589;-66
2020/12/28 05:35:13;;;;;;;2.50;1.95;;;4.80;99.90;;;;;;5016266;28;20411;-66
2020/12/28 05:37:40;;;;;;;2.20;1.73;;;4.70;99.90;;;;;;5016005;28;20049;-66
2020/12/28 05:40:10;;;;;;;2.60;1.85;;;4.70;99.90;;;;;;5016368;28;20092;-66
2020/12/28 05:42:38;;;;;;;2.40;1.70;;;4.80;99.90;;;;;;5016073;28;20058;-66
2020/12/28 05:45:08;;;;;;;3.35;2.15;;;4.90;99.90;;;;;;5016005;28;20133;-66
2020/12/28 05:47:41;;;;;;;2.20;1.63;;;5.00;99.90;;;;;;5016606;28;20108;-66
2020/12/28 05:50:09;;;;;;;2.80;2.08;;;5.00;99.90;;;;;;5015710;28;20046;-66
2020/12/28 05:52:38;;;;;;;3.00;2.05;;;4.90;99.90;;;;;;5015953;28;20351;-66
2020/12/28 05:55:05;;;;;;;3.47;2.28;;;4.90;99.90;;;;;;5016026;28;20482;-66
2020/12/28 05:57:31;;;;;;;3.45;2.40;;;4.90;99.90;;;;;;5015831;28;20061;-66
2020/12/28 05:59:58;;;;;;;3.17;2.33;;;4.80;99.90;;;;;;5015699;28;20137;-66
2020/12/28 06:02:28;;;;;;;3.67;2.60;;;4.90;99.90;;;;;;5016642;28;20129;-66
2020/12/28 06:04:55;;;;;;;3.97;2.70;;;5.00;99.90;;;;;;5015790;28;20476;-66
2020/12/28 06:07:22;;;;;;;3.08;2.33;;;4.90;99.90;;;;;;5015705;28;20050;-66
2020/12/28 06:09:58;;;;;;;3.60;2.80;;;5.00;99.90;;;;;;5027916;28;20486;-66
2020/12/28 06:12:25;;;;;;;3.30;2.42;;;5.00;99.90;;;;;;5022939;28;20474;-66
2020/12/28 06:14:51;;;;;;;4.40;2.80;;;5.00;99.90;;;;;;5015599;28;20053;-66
2020/12/28 06:17:18;;;;;;;3.55;2.63;;;5.00;99.90;;;;;;5015273;28;20074;-66
2020/12/28 06:19:45;;;;;;;3.20;2.25;;;5.00;99.90;;;;;;5015669;28;20161;-66
2020/12/28 06:22:18;;;;;;;4.03;2.10;;;5.00;99.90;;;;;;5015221;28;20045;-65
2020/12/28 06:24:57;;;;;;;3.42;2.08;;;5.00;99.90;;;;;;5016496;28;21475;-65
2020/12/28 06:27:30;;;;;;;3.40;2.35;;;4.90;99.90;;;;;;5015077;28;20133;-65
2020/12/28 06:30:13;;;;;;;2.80;2.20;;;5.00;99.90;;;;;;5015394;28;20088;-65
2020/12/28 06:32:41;;;;;;;3.10;2.35;;;4.80;99.90;;;;;;5014020;28;20049;-65
2020/12/28 06:35:10;;;;;;;2.45;2.05;;;4.80;99.90;;;;;;5014913;28;20184;-65
2020/12/28 06:37:44;;;;;;;3.45;2.13;;;4.90;99.90;;;;;;5015034;28;20081;-64
2020/12/28 06:40:12;;;;;;;3.30;2.00;;;5.00;99.90;;;;;;5022144;28;20073;-64
2020/12/28 06:42:39;;;;;;;3.25;2.00;;;5.00;99.90;;;;;;5028910;28;20128;-64
2020/12/28 06:45:14;;;;;;;2.20;1.80;;;5.10;99.90;;;;;;5033684;28;20108;-64
2020/12/28 06:47:41;;;;;;;2.75;2.08;;;5.00;99.90;;;;;;5034136;28;20061;-64
2020/12/28 06:50:07;;;;;;;3.42;2.00;;;5.00;99.90;;;;;;5034485;28;20084;-64
2020/12/28 06:52:34;;;;;;;3.00;2.17;;;4.80;99.90;;;;;;5033666;28;20451;-64
2020/12/28 06:55:08;;;;;;;4.00;1.83;;;4.70;99.90;;;;;;5034563;28;20107;-64
2020/12/28 06:57:36;;;;;;;2.65;1.90;;;4.70;99.90;;;;;;5023931;28;20054;-64
2020/12/28 07:00:04;;;;;;;2.50;2.00;;;4.70;99.90;;;;;;5032114;28;20137;-64
2020/12/28 07:02:32;;;;;;;3.10;1.90;;;4.70;99.90;;;;;;5022650;28;20082;-64
2020/12/28 07:05:02;;;;;;;2.55;2.00;;;4.70;99.90;;;;;;5014685;28;20046;-64
2020/12/28 07:07:28;;;;;;;3.20;2.38;;;4.70;99.90;;;;;;5021983;28;20076;-64
2020/12/28 07:09:55;;;;;;;4.07;2.30;;;4.70;99.90;;;;;;5031859;28;20146;-64
2020/12/28 07:12:21;;;;;;;3.55;2.40;;;4.60;99.90;;;;;;5034017;28;20053;-64
2020/12/28 07:14:49;;;;;;;3.53;2.53;;;4.60;99.90;;;;;;5034094;28;20510;-64
2020/12/28 07:17:15;;;;;;;3.17;2.60;;;4.70;99.90;;;;;;5033983;28;20063;-64
2020/12/28 07:19:42;;;;;;;3.05;2.40;;;4.60;99.90;;;;;;5033331;28;20049;-64
2020/12/28 07:22:09;;;;;;;3.10;2.30;;;4.70;99.90;;;;;;5033629;28;20488;-64
2020/12/28 07:24:35;;;;;;;3.17;2.40;;;4.80;99.90;;;;;;5033521;28;20084;-64
2020/12/28 07:27:02;;;;;;;4.57;2.60;;;4.60;99.90;;;;;;5033784;28;20085;-64
2020/12/28 07:29:29;;;;;;;5.00;2.25;;;4.80;99.90;;;;;;5033603;28;20057;-64
2020/12/28 07:32:04;;;;;;;3.00;2.20;;;4.80;99.90;;;;;;5033933;28;20069;-64
2020/12/28 07:34:31;;;;;;;3.08;2.22;;;4.70;99.90;;;;;;5032729;28;20391;-64
2020/12/28 07:37:01;;;;;;;2.80;2.10;;;4.80;99.90;;;;;;5033571;28;20077;-64
2020/12/28 07:39:30;;;;;;;;;;;4.90;99.90;;;;;;5027819;28;20143;-64
2020/12/28 07:41:58;;;;;;;2.50;2.00;;;4.90;99.90;;;;;;5026621;28;19921;-64
2020/12/28 07:44:25;;;;;;;3.28;1.83;;;4.70;99.90;;;;;;5031637;28;21011;-62
2020/12/28 07:46:58;;;;;;;2.55;1.75;;;4.80;99.90;;;;;;5018367;28;20184;-66
2020/12/28 07:49:28;;;;;;;2.60;1.85;;;5.00;99.90;;;;;;5033246;28;20081;-67
2020/12/28 07:52:12;;;;;;;2.63;1.90;;;5.00;99.90;;;;;;5022890;28;20068;-67
2020/12/28 07:54:46;;;;;;;2.50;1.80;;;4.80;99.90;;;;;;5028554;28;20046;-66
2020/12/28 07:57:18;;;;;;;3.08;1.67;;;4.70;99.90;;;;;;5032905;28;20053;-67
2020/12/28 08:00:05;;;;;;;2.42;1.52;;;4.60;99.90;;;;;;5017171;28;20064;-67
2020/12/28 08:02:53;;;;;;;2.55;1.27;;;4.50;99.90;;;;;;5023328;28;20048;-66
2020/12/28 08:05:22;;;;;;;3.58;1.10;;;4.40;99.90;;;;;;5022890;28;20435;-66
2020/12/28 08:07:49;;;;;;;1.60;1.10;;;4.40;99.90;;;;;;5032094;28;20049;-67
2020/12/28 08:10:18;;;;;;;3.13;1.40;;;4.40;99.90;;;;;;5032740;28;20057;-66
2020/12/28 08:12:51;;;;;;;1.80;1.10;;;4.50;99.90;;;;;;5031153;28;20041;-67
2020/12/28 08:15:26;;;;;;;2.28;1.25;;;4.60;99.90;;;;;;5031182;28;20057;-67
2020/12/28 08:18:12;;;;;;;2.00;1.13;;;4.60;99.90;;;;;;5031577;28;20045;-66
2020/12/28 08:20:42;;;;;;;2.15;1.10;;;4.70;99.90;;;;;;5014067;28;20064;-67
2020/12/28 08:23:09;;;;;;;1.88;1.20;;;4.80;99.90;;;;;;5014328;28;20060;-67
2020/12/28 08:25:36;;;;;;;2.22;1.00;;;4.70;99.90;;;;;;5031047;28;20069;-67
2020/12/28 08:28:04;;;;;;;1.45;1.05;;;4.70;99.90;;;;;;5032254;28;20053;-67
2020/12/28 08:30:32;;;;;;;1.90;1.10;;;4.90;99.90;;;;;;5032836;28;20418;-67
2020/12/28 08:32:59;;;;;;;1.55;1.00;;;5.20;99.90;;;;;;5028591;28;20085;-67
2020/12/28 08:35:26;;;;;;;1.63;0.80;;;5.80;99.90;;;;;;5030181;28;20053;-67
2020/12/28 08:37:54;;;;;;;1.65;0.85;;;6.60;99.90;;;;;;5032412;28;20056;-67
2020/12/28 08:40:22;;;;;;;2.53;0.90;;;7.40;99.90;;;;;;5027796;28;20376;-67
2020/12/28 08:42:53;;;;;;;1.88;0.90;;;8.00;99.90;;;;;;5032545;28;20100;-67
2020/12/28 08:45:21;;;;;;;2.67;1.10;;;8.10;99.90;;;;;;5032028;28;20525;-67
2020/12/28 08:47:52;;;;;;;2.08;0.80;;;7.80;99.90;;;;;;5022144;28;20126;-67
2020/12/28 08:50:18;;;;;;;2.08;0.70;;;7.60;99.90;;;;;;5024563;28;20399;-68
2020/12/28 08:52:49;;;;;;;2.55;1.00;;;7.90;99.90;;;;;;5013451;28;20424;-68
2020/12/28 08:55:18;;;;;;;2.67;0.90;;;8.20;99.90;;;;;;5014636;28;20089;-68
2020/12/28 08:57:51;;;;;;;1.90;0.90;;;8.70;99.90;;;;;;5016049;28;20053;-68
2020/12/28 09:00:18;;;;;;;2.10;1.00;;;9.50;99.20;;;;;;5023295;28;20041;-68
2020/12/28 09:02:51;;;;;;;1.80;0.70;;;10.30;96.80;;;;;;5030482;28;20119;-68
2020/12/28 09:05:18;;;;;;;2.55;0.90;;;10.60;94.20;;;;;;5024402;28;20050;-68
2020/12/28 09:07:44;;;;;;;1.20;0.80;;;10.50;94.80;;;;;;5033555;28;20049;-68
2020/12/28 09:10:12;;;;;;;1.77;0.70;;;10.60;93.90;;;;;;5032045;28;20056;-68
2020/12/28 09:12:40;;;;;;;1.90;1.15;;;10.60;91.10;;;;;;5016832;28;20050;-69
2020/12/28 09:15:07;;;;;;;1.83;0.93;;;10.70;91.10;;;;;;5032606;28;20415;-68
2020/12/28 09:17:33;;;;;;;2.20;0.80;;;11.10;91.10;;;;;;5034502;28;20057;-68
2020/12/28 09:20:00;;;;;;;2.60;0.90;;;11.10;90.60;;;;;;5035941;28;20049;-69
2020/12/28 09:22:26;;;;;;;1.30;0.80;;;11.20;90.80;;;;;;5035444;28;20144;-68
2020/12/28 09:24:54;;;;;;;1.90;1.20;;;11.20;88.50;;;;;;5022867;28;20050;-69
2020/12/28 09:27:21;;;;;;;1.70;0.75;;;11.20;88.50;;;;;;5024580;28;20084;-69
2020/12/28 09:29:51;;;;;;;2.10;1.10;;;10.40;90.50;;;;;;5036484;28;20060;-68
2020/12/28 09:32:17;;;;;;;1.83;1.10;;;10.20;91.70;;;;;;5034440;28;20053;-68
2020/12/28 09:34:44;;;;;;;1.52;0.82;;;10.70;90.20;;;;;;5024391;28;20140;-69
2020/12/28 09:37:11;;;;;;;2.03;0.90;;;10.50;89.50;;;;;;5036586;28;20099;-68
2020/12/28 09:39:38;;;;;;;2.10;1.10;;;10.70;89.80;;;;;;5032243;28;20049;-68
2020/12/28 09:42:05;;;;;;;2.88;1.10;;;10.90;87.90;;;;;;5035283;28;20491;-68
2020/12/28 09:44:32;;;;;;;3.85;1.10;;;11.80;86.00;;;;;;5016343;28;20049;-68
2020/12/28 09:47:00;;;;;;;2.30;1.10;;;12.60;84.50;;;;;;5016048;28;20089;-69
2020/12/28 09:49:26;;;;;;;2.10;1.08;;;12.50;79.80;;;;;;5033390;28;20060;-68
2020/12/28 09:51:53;;;;;;;2.05;1.05;;;12.90;78.60;;;;;;5026211;28;20065;-68
2020/12/28 09:54:20;;;;;;;2.47;1.02;;;12.90;78.90;;;;;;5034993;28;20127;-68
2020/12/28 09:56:47;;;;;;;1.90;0.68;;;12.30;79.80;;;;;;5033762;28;20051;-68
2020/12/28 09:59:13;;;;;;;1.48;0.90;;;12.30;81.00;;;;;;5021161;28;20053;-68
2020/12/28 10:01:44;;;;;;;2.50;0.95;;;12.00;84.80;;;;;;5036360;28;20056;-68
2020/12/28 10:04:11;;;;;;;3.47;1.08;;;11.60;80.40;;;;;;5030840;28;20129;-68
2020/12/28 10:06:38;;;;;;;2.58;0.90;;;10.90;83.20;;;;;;5035051;28;20053;-68
2020/12/28 10:09:07;;;;;;;1.95;0.77;;;9.90;86.00;;;;;;5033645;28;20454;-68
2020/12/28 10:11:34;;;;;;;3.45;1.67;;;9.90;88.40;;;;;;5033954;28;20460;-68
2020/12/28 10:14:01;;;;;;;1.73;1.00;;;9.50;89.00;;;;;;5027804;28;20093;-68
2020/12/28 10:16:31;;;;;;;2.90;0.80;;;9.30;90.20;;;;;;5015389;28;20058;-68
2020/12/28 10:18:58;;;;;;;2.00;1.17;;;9.10;90.70;;;;;;5026620;28;20049;-68
2020/12/28 10:21:27;;;;;;;1.35;0.70;;;8.90;91.70;;;;;;5034827;28;20093;-68
2020/12/28 10:23:54;;;;;;;2.03;1.05;;;8.40;92.50;;;;;;5028361;28;20136;-68
2020/12/28 10:26:21;;;;;;;2.35;1.05;;;8.40;92.50;;;;;;5034880;28;20049;-68
2020/12/28 10:28:49;;;;;;;2.90;0.90;;;8.40;92.60;;;;;;5033986;28;20060;-68
2020/12/28 10:31:17;;;;;;;1.83;1.00;;;8.10;92.50;;;;;;5030627;28;20124;-68
2020/12/28 10:33:45;;;;;;;2.15;1.10;;;8.30;92.70;;;;;;5024566;28;20096;-69
2020/12/28 10:36:17;;;;;;;3.35;1.15;;;8.10;93.30;;;;;;5015294;28;20054;-69
2020/12/28 10:38:44;;;;;;;2.13;1.08;;;8.20;92.40;;;;;;5033127;28;20056;-69
2020/12/28 10:41:11;;;;;;;2.17;1.00;;;8.30;92.80;;;;;;5030564;28;20082;-68
2020/12/28 10:43:38;;;;;;;2.10;1.08;;;8.70;92.20;;;;;;5015117;28;20090;-69
2020/12/28 10:46:06;;;;;;;2.33;1.17;;;9.10;91.50;;;;;;5019159;28;20089;-68
2020/12/28 10:48:33;;;;;;;1.55;0.85;;;8.90;91.70;;;;;;5034360;28;20089;-68
2020/12/28 10:51:00;;;;;;;4.15;1.10;;;8.40;92.10;;;;;;5020353;28;20045;-69
2020/12/28 10:53:29;;;;;;;2.13;0.90;;;8.20;92.90;;;;;;5014617;28;20486;-68
2020/12/28 10:55:56;;;;;;;2.42;1.15;;;8.10;92.90;;;;;;5014756;28;20064;-69
2020/12/28 10:58:23;;;;;;;3.00;2.78;;;8.10;93.30;;;;;;5014458;28;20064;-68
2020/12/28 11:00:52;;;;;;;2.35;2.17;;;8.70;92.80;;;;;;5029321;28;20060;-69
2020/12/28 11:03:19;;;;;;;2.47;1.13;;;9.00;91.70;;;;;;5025776;28;20510;-69
2020/12/28 11:05:46;;;;;;;2.50;1.52;;;9.00;91.00;;;;;;5014541;28;20076;-68
2020/12/28 11:08:15;;;;;;;1.50;1.00;;;8.90;91.40;;;;;;5028474;28;20096;-68
2020/12/28 11:10:41;;;;;;;2.20;0.70;;;8.70;91.80;;;;;;5034194;28;20046;-69
2020/12/28 11:13:09;;;;;;;1.70;0.70;;;8.40;92.40;;;;;;5033765;28;20103;-69
2020/12/28 11:15:36;;;;;;;2.40;0.65;;;8.10;94.00;;;;;;5018747;28;20089;-68
2020/12/28 11:18:04;;;;;;;1.50;0.70;;;7.70;93.90;;;;;;5014170;28;20057;-69
2020/12/28 11:20:31;;;;;;;1.45;0.80;;;7.10;94.70;;;;;;5014442;28;20080;-68
2020/12/28 11:22:57;;;;;;;1.52;0.70;;;6.90;95.80;;;;;;5014068;28;20415;-68
2020/12/28 11:25:24;;;;;;;3.25;0.75;;;6.70;96.50;;;;;;5025222;28;20053;-69
2020/12/28 11:27:51;;;;;;;1.35;0.80;;;6.60;97.00;;;;;;5032382;28;20056;-68
2020/12/28 11:30:18;;;;;;;2.22;1.30;;;6.50;96.90;;;;;;5027110;28;20119;-68
2020/12/28 11:32:44;;;;;;;2.05;0.98;;;6.90;96.60;;;;;;5031672;28;20045;-68
2020/12/28 11:35:11;;;;;;;2.15;0.90;;;7.00;96.60;;;;;;5033535;28;20060;-68
2020/12/28 11:37:38;;;;;;;1.40;0.75;;;7.00;96.00;;;;;;5033327;28;20088;-68
2020/12/28 11:40:04;;;;;;;2.05;0.88;;;6.90;96.60;;;;;;5024429;28;20077;-68
2020/12/28 11:42:32;;;;;;;3.00;1.90;;;6.90;96.80;;;;;;5028167;28;20479;-68
2020/12/28 11:45:07;;;;;;;2.65;0.80;;;7.20;96.30;;;;;;5033603;28;20470;-69
2020/12/28 11:47:35;;;;;;;1.70;0.90;;;7.10;95.90;;;;;;5032853;28;20064;-68
2020/12/28 11:50:01;;;;;;;2.30;1.00;;;7.10;96.10;;;;;;5026815;28;20465;-68
2020/12/28 11:52:28;;;;;;;2.70;0.90;;;6.90;96.50;;;;;;5013160;28;20140;-68
2020/12/28 11:54:54;;;;;;;2.20;1.02;;;7.20;96.50;;;;;;5013617;28;20084;-69
2020/12/28 11:57:23;;;;;;;2.33;1.00;;;6.90;96.00;;;;;;5026933;28;20080;-68
2020/12/28 11:59:50;;;;;;;1.80;1.00;;;6.80;96.50;;;;;;5032794;28;20045;-68
2020/12/28 12:02:19;;;;;;;2.00;1.80;;;7.10;96.90;;;;;;5033107;28;20103;-68
2020/12/28 12:04:49;;;;;;;3.05;2.70;;;7.30;95.90;;;;;;5033089;28;20073;-68
2020/12/28 12:07:17;;;;;;;3.60;2.92;;;7.60;95.80;;;;;;5032901;28;20045;-68
2020/12/28 12:09:44;;;;;;;2.80;2.60;;;8.10;95.50;;;;;;5033210;28;20061;-68
2020/12/28 12:12:11;;;;;;;3.53;3.05;;;8.50;94.10;;;;;;5032628;28;20057;-68
2020/12/28 12:14:38;;;;;;;11.40;10.90;;;8.80;94.10;;;;;;5032904;28;20041;-68
2020/12/28 12:17:04;;;;;;;10.40;9.90;;;9.60;91.90;;;;;;5033022;28;20111;-68
2020/12/28 12:19:31;;;;;;;7.55;7.15;;;10.10;91.70;;;;;;5033282;28;20049;-68
2020/12/28 12:21:58;;;;;;;7.85;7.45;;;11.50;87.00;;;;;;5032598;28;20045;-68
2020/12/28 12:24:25;;;;;;;5.05;4.75;;;10.80;85.50;;;;;;5032642;28;20091;-69
2020/12/28 12:26:52;;;;;;;2.83;1.50;;;11.40;87.40;;;;;;5032698;28;20111;-69
2020/12/28 12:29:18;;;;;;;5.72;5.32;;;11.50;81.90;;;;;;5032546;28;20081;-69
2020/12/28 12:31:48;;;;;;;3.70;3.40;;;11.80;83.80;;;;;;5032698;28;20053;-69
2020/12/28 12:34:14;;;;;;;;;;;12.10;81.40;;;;;;5029804;28;20049;-69
2020/12/28 12:36:41;;;;;;;2.55;2.35;;;12.60;81.30;;;;;;5012533;28;19972;-69
2020/12/28 12:39:08;;;;;;;3.60;3.30;;;12.30;78.60;;;;;;5030237;28;20050;-69
2020/12/28 12:41:36;;;;;;;2.40;2.00;;;12.20;78.60;;;;;;5031374;28;20049;-69
2020/12/28 12:44:02;;;;;;;1.75;1.27;;;12.70;79.20;;;;;;5034528;28;20084;-69
2020/12/28 12:46:29;;;;;;;1.88;1.30;;;12.50;77.10;;;;;;5021362;28;20185;-69
2020/12/28 12:48:56;;;;;;;3.13;1.70;;;11.40;78.90;;;;;;5022784;28;20042;-68
2020/12/28 12:51:23;;;;;;;2.45;1.40;;;11.00;82.70;;;;;;5018942;28;20045;-68
2020/12/28 12:53:49;;;;;;;2.92;2.38;;;10.80;81.50;;;;;;5016758;28;20049;-68
2020/12/28 12:56:21;;;;;;;2.17;1.85;;;10.30;83.70;;;;;;5016928;28;20049;-68
2020/12/28 12:58:50;;;;;;;2.25;1.40;;;10.10;85.10;;;;;;5016796;28;20538;-68